Airfield :
LOGIN :

Register | Disclaimer

   EN    FR    IT 

 










Legend :    VFR   Marginal VFR   IFR   Intensive IFR   Very Intensive IFR
Visi :
Ceiling :
>= 8 km
>= 3000ft
5 to 8 km
1000 to 3000 ft
1500m to 5 km
500 to 1000 ft
800 to 1500m
200 to 500 ft
< 800m
< 200 ft
Symbols :   Thunderstorms  Fog  Heavy snow  Heavy precipitations  Wind > 20 kt
SIGMETs :     Misc.  Thunderstorms  Icing  Turbulence  Mountain Waves  Volcanic Ashes







- Airport Elevation : 423 ft
- IATA code : PIS
- Download approach charts


LFBI - Poitiers

CURRENT METAR :
  • 230600Z AUTO 16003KT CAVOK 13/08 Q0996 NOSIG

EXPIRED METARs :
  • 230530Z AUTO 14003KT CAVOK 13/08 Q0996 NOSIG
  • 230500Z AUTO 17004KT CAVOK 13/08 Q0996 NOSIG
  • 230430Z AUTO 16005KT CAVOK 13/08 Q0996 NOSIG
  • 230400Z AUTO 16005KT CAVOK 13/08 Q0997 NOSIG
  • 230330Z AUTO 15005KT CAVOK 13/08 Q0997 NOSIG

TAF TAF LFBI
Valid from the 23 at 06:00 until the 24 at 06:00 UTC


230500Z 2306/2406 VRB02KT CAVOK
TEMPO 2313/2321 18010KT 4000 SHRA BKN030TCU
PROB30
TEMPO 2314/2316 VRB15G25KT 1500 TSRAGR SCT010 BKN020CB
PROB30
TEMPO 2320/2322 VRB15G25KT 1500 TSRAGR SCT010 BKN020CB
BECMG 2321/2323 5000 -RA BKN030
No reported NOTAMs for that airfield.



MET'MAP, your aeronautical weather chart ! - Copyright ORBIFLY December 2007 - Disclaimer

ORBIFLY MET'MAP TEAM :

Programming & Development : Alexandra Zaïnal
Concept & Development : Baudouin d'Aumeries
Co-Development & Prog : Marc-Olivier Méhu
Technical & hardware support : Manuel Goepfert

Contact : metmap@orbifly.com




SOURCES & CREDITS :

   NOAA